Time,TemperatureF,DewpointF,PressureIn,WindDirection,WindDirectionDegrees,WindSpeedMPH,WindSpeedGustMPH,Humidity,HourlyPrecipIn,Conditions,Clouds,dailyrainin,SolarRadiationWatts/m^2,SoftwareType,DateUTC
2013-08-09 10:22:00,63.0,37.0,30.01,West,281,2.0,3.0,39,-99.99,,,-99.99,671.000000,,2013-08-09 17:22:00,
2013-08-09 11:40:00,67.0,49.0,30.02,WNW,283,3.0,5.0,52,-99.99,,,-99.99,962.000000,,2013-08-09 18:40:00,
2013-08-09 12:22:00,67.0,49.0,30.02,WNW,283,3.0,5.0,52,-99.99,,,-99.99,962.000000,,2013-08-09 19:22:00,
2013-08-09 12:32:00,67.0,49.0,30.02,WNW,283,3.0,5.0,52,-99.99,,,-99.99,962.000000,,2013-08-09 19:32:00,
2013-08-09 12:40:00,66.0,49.0,30.03,West,268,3.0,5.0,54,-99.99,,,-99.99,1019.000000,,2013-08-09 19:40:00,
2013-08-09 13:22:00,66.0,49.0,30.03,West,268,3.0,5.0,54,-99.99,,,-99.99,1019.000000,,2013-08-09 20:22:00,
2013-08-09 13:32:00,66.0,49.0,30.03,West,268,3.0,5.0,54,-99.99,,,-99.99,1019.000000,,2013-08-09 20:32:00,
2013-08-09 13:40:00,67.0,48.0,30.03,WNW,284,3.0,6.0,50,-99.99,,,-99.99,1014.000000,,2013-08-09 20:40:00,
2013-08-09 14:22:00,67.0,48.0,30.03,WNW,284,3.0,6.0,50,-99.99,,,-99.99,1014.000000,,2013-08-09 21:22:00,
2013-08-09 14:33:00,67.0,48.0,30.03,WNW,284,3.0,6.0,50,-99.99,,,-99.99,1014.000000,,2013-08-09 21:33:00,
2013-08-09 14:40:00,67.0,49.0,30.03,WNW,288,3.0,6.0,53,-99.99,,,-99.99,949.000000,,2013-08-09 21:40:00,
2013-08-09 15:22:00,67.0,49.0,30.03,WNW,288,3.0,6.0,53,-99.99,,,-99.99,949.000000,,2013-08-09 22:22:00,
2013-08-09 15:32:00,67.0,49.0,30.03,WNW,288,3.0,6.0,53,-99.99,,,-99.99,949.000000,,2013-08-09 22:32:00,
2013-08-09 15:40:00,68.0,47.0,30.03,WNW,289,4.0,6.0,46,-99.99,,,-99.99,826.000000,,2013-08-09 22:40:00,
2013-08-09 16:40:00,67.0,51.0,30.02,WNW,291,3.0,5.0,56,-99.99,,,-99.99,653.000000,,2013-08-09 23:40:00,
2013-08-09 17:33:00,67.0,51.0,30.02,WNW,291,3.0,5.0,56,-99.99,,,-99.99,653.000000,,2013-08-10 00:33:00,
2013-08-09 17:40:00,68.0,46.0,30.02,NW,309,3.0,6.0,45,-99.99,,,-99.99,448.000000,,2013-08-10 00:40:00,
2013-08-09 18:21:00,68.0,46.0,30.02,NW,309,3.0,6.0,45,-99.99,,,-99.99,448.000000,,2013-08-10 01:21:00,
2013-08-09 18:32:00,68.0,46.0,30.02,NW,309,3.0,6.0,45,-99.99,,,-99.99,448.000000,,2013-08-10 01:32:00,
2013-08-09 18:40:00,66.0,47.0,30.01,NW,309,5.0,8.0,51,-99.99,,,-99.99,233.000000,,2013-08-10 01:40:00,
2013-08-09 19:21:00,66.0,47.0,30.01,NW,309,5.0,8.0,51,-99.99,,,-99.99,233.000000,,2013-08-10 02:21:00,
2013-08-09 19:32:00,66.0,47.0,30.01,NW,309,5.0,8.0,51,-99.99,,,-99.99,233.000000,,2013-08-10 02:32:00,
2013-08-09 19:40:00,65.0,45.0,30.02,NW,309,5.0,9.0,50,-99.99,,,-99.99,53.000000,,2013-08-10 02:40:00,
2013-08-09 20:21:00,65.0,45.0,30.02,NW,309,5.0,9.0,50,-99.99,,,-99.99,53.000000,,2013-08-10 03:21:00,
2013-08-09 20:32:00,65.0,45.0,30.02,NW,309,5.0,9.0,50,-99.99,,,-99.99,53.000000,,2013-08-10 03:32:00,
2013-08-09 20:40:00,63.0,45.0,30.02,North,9,3.0,5.0,52,-99.99,,,-99.99,0.000000,,2013-08-10 03:40:00,
2013-08-09 21:22:00,63.0,45.0,30.02,North,9,3.0,5.0,52,-99.99,,,-99.99,0.000000,,2013-08-10 04:22:00,
2013-08-09 21:32:00,63.0,45.0,30.02,North,9,3.0,5.0,52,-99.99,,,-99.99,0.000000,,2013-08-10 04:32:00,
2013-08-09 21:40:00,63.0,44.0,30.04,NNW,329,6.0,9.0,49,-99.99,,,-99.99,0.000000,,2013-08-10 04:40:00,